createdAt,value
2023-02-03T00:02:50.732Z,101170.19
2023-02-03T00:07:52.200Z,101189.22
2023-02-03T00:12:53.704Z,101157.69
2023-02-03T00:17:55.170Z,101159.69
2023-02-03T00:23:06.249Z,101156.31
2023-02-03T00:28:07.838Z,101137.59
2023-02-03T00:33:09.343Z,101144.72
2023-02-03T00:38:10.799Z,101150.25
2023-02-03T00:43:12.264Z,101126.44
2023-02-03T00:48:14.169Z,101113.09
2023-02-03T00:53:15.623Z,101090.84
2023-02-03T00:58:17.098Z,101045.28
2023-02-03T01:03:18.579Z,101044.66
2023-02-03T01:08:20.118Z,101060.59
2023-02-03T01:13:21.573Z,101080.78
2023-02-03T01:18:23.034Z,101095.16
2023-02-03T01:23:24.497Z,101092.81
2023-02-03T01:28:25.979Z,101096.69
2023-02-03T01:33:27.449Z,101081.13
2023-02-03T01:38:28.909Z,101090.56
2023-02-03T01:43:37.335Z,101071.22
2023-02-03T01:48:38.837Z,101075.50
2023-02-03T01:53:40.326Z,101066.09
2023-02-03T01:58:41.813Z,101038.97
2023-02-03T02:03:46.604Z,101032.78
2023-02-03T02:08:50.201Z,101035.31
2023-02-03T02:13:51.965Z,101036.59
2023-02-03T02:18:58.981Z,101025.13
2023-02-03T02:24:36.142Z,101010.22
2023-02-03T02:29:46.445Z,101009.81
2023-02-03T02:34:57.767Z,100996.50
2023-02-03T02:40:07.534Z,100960.84
2023-02-03T02:45:16.856Z,100965.88
2023-02-03T02:50:23.614Z,100964.09
2023-02-03T02:55:28.260Z,100965.81
2023-02-03T03:00:34.133Z,100976.72
2023-02-03T03:05:35.635Z,100986.25
2023-02-03T03:10:37.100Z,100990.41
2023-02-03T03:15:38.618Z,100973.25
2023-02-03T03:20:40.582Z,100967.31
2023-02-03T03:25:45.452Z,100980.06
2023-02-03T03:30:46.997Z,100964.56
2023-02-03T03:36:03.311Z,100941.53
2023-02-03T03:41:18.850Z,100923.19
2023-02-03T03:46:21.787Z,100936.06
2023-02-03T03:51:28.464Z,100921.56
2023-02-03T03:56:36.778Z,100918.97
2023-02-03T04:01:38.857Z,100925.03
2023-02-03T04:06:40.463Z,100928.31
2023-02-03T04:12:00.285Z,100923.50
2023-02-03T04:17:01.818Z,100946.69
2023-02-03T04:22:03.295Z,100938.75
2023-02-03T04:27:05.448Z,100922.59
2023-02-03T04:32:07.088Z,100903.88
2023-02-03T04:37:08.639Z,100864.66
2023-02-03T04:42:10.102Z,100869.75
2023-02-03T04:47:11.559Z,100853.00
2023-02-03T04:52:13.591Z,100879.19
2023-02-03T04:57:15.044Z,100868.75
2023-02-03T05:02:16.549Z,100860.97
2023-02-03T05:07:18.010Z,100856.91
2023-02-03T05:12:19.488Z,100856.63
2023-02-03T05:17:20.993Z,100854.19
2023-02-03T05:22:22.457Z,100867.69
2023-02-03T05:27:23.917Z,100837.66
2023-02-03T05:32:25.793Z,100859.72
2023-02-03T05:37:27.264Z,100826.75
2023-02-03T05:42:28.735Z,100856.09
2023-02-03T05:47:30.218Z,100839.16
2023-02-03T05:52:31.692Z,100852.59
2023-02-03T05:57:33.154Z,100837.50
2023-02-03T06:02:34.619Z,100845.66
2023-02-03T06:07:36.091Z,100828.50
2023-02-03T06:12:38.268Z,100832.28
2023-02-03T06:17:39.739Z,100838.06
2023-02-03T06:22:41.236Z,100829.78
2023-02-03T06:27:42.752Z,100833.06
2023-02-03T06:32:44.245Z,100852.44
2023-02-03T06:37:45.751Z,100853.50
2023-02-03T06:42:47.734Z,100849.44
2023-02-03T06:47:49.215Z,100853.81
2023-02-03T06:52:50.775Z,100875.97
2023-02-03T06:57:52.237Z,100910.66
2023-02-03T07:02:55.077Z,100897.28
2023-02-03T07:07:56.657Z,100886.53
2023-02-03T07:13:03.314Z,100875.91
2023-02-03T07:18:04.897Z,100900.94
2023-02-03T07:23:06.726Z,100903.03
2023-02-03T07:28:08.273Z,100906.44
2023-02-03T07:33:09.787Z,100909.59
2023-02-03T07:38:12.189Z,100919.66
2023-02-03T07:43:13.709Z,100920.34
2023-02-03T07:48:15.196Z,100925.09
2023-02-03T07:53:17.064Z,100956.72
2023-02-03T07:58:18.633Z,100946.47
2023-02-03T08:03:20.176Z,100960.03
2023-02-03T08:08:21.672Z,100980.38
2023-02-03T08:13:23.138Z,100987.28
2023-02-03T08:18:24.621Z,100995.19
2023-02-03T08:23:26.169Z,101005.59
2023-02-03T08:28:27.644Z,101018.38
2023-02-03T08:33:29.215Z,101036.09
2023-02-03T08:38:30.690Z,101071.06
2023-02-03T08:43:32.190Z,101056.63
2023-02-03T08:48:33.710Z,101044.19
2023-02-03T08:53:35.187Z,101075.19
2023-02-03T08:58:37.137Z,101094.19
2023-02-03T09:03:38.700Z,101111.28
2023-02-03T09:08:40.186Z,101099.19
2023-02-03T09:13:45.807Z,101099.78
2023-02-03T09:18:47.265Z,101074.72
2023-02-03T09:23:48.720Z,101126.25
2023-02-03T09:28:50.180Z,101127.09
2023-02-03T09:33:51.671Z,101149.75
2023-02-03T09:38:53.158Z,101130.34
2023-02-03T09:44:13.931Z,101164.41
2023-02-03T09:49:21.239Z,101162.59
2023-02-03T09:54:34.445Z,101173.47
2023-02-03T09:59:35.938Z,101160.63
2023-02-03T10:04:40.075Z,101149.91
2023-02-03T10:10:12.568Z,101153.41
2023-02-03T10:15:28.086Z,101182.69
2023-02-03T10:20:42.355Z,101182.00
2023-02-03T10:25:57.254Z,101200.81
2023-02-03T10:31:01.063Z,101204.44
2023-02-03T10:36:20.530Z,101218.00
2023-02-03T10:41:22.192Z,101234.16
2023-02-03T10:46:28.800Z,101262.81
2023-02-03T10:51:38.823Z,101242.44
2023-02-03T10:56:40.394Z,101242.03
2023-02-03T11:01:47.240Z,101248.06
2023-02-03T11:06:56.654Z,101266.63
2023-02-03T11:12:06.617Z,101239.53
2023-02-03T11:17:09.091Z,101293.00
2023-02-03T11:22:10.559Z,101285.00
2023-02-03T11:27:16.102Z,101309.28
2023-02-03T11:32:34.124Z,101308.25
2023-02-03T11:37:38.037Z,101295.72
2023-02-03T11:42:43.793Z,101278.66
2023-02-03T11:47:54.327Z,101306.06
2023-02-03T11:53:11.651Z,101300.09
2023-02-03T11:58:28.987Z,101313.22
2023-02-03T12:03:37.105Z,101307.84
2023-02-03T12:09:07.115Z,101304.69
2023-02-03T12:14:17.503Z,101306.22
2023-02-03T12:19:38.766Z,101318.66
2023-02-03T12:25:10.068Z,101325.75
2023-02-03T12:30:17.415Z,101318.06
2023-02-03T12:35:22.960Z,101346.56
2023-02-03T12:40:37.654Z,101338.47
2023-02-03T12:45:39.767Z,101333.66
2023-02-03T12:50:46.230Z,101345.66
2023-02-03T12:55:51.157Z,101361.91
2023-02-03T13:00:59.444Z,101360.22
2023-02-03T13:06:13.168Z,101344.59
2023-02-03T13:11:24.684Z,101360.50
2023-02-03T13:16:33.014Z,101386.44
2023-02-03T13:21:34.563Z,101400.16
2023-02-03T13:27:03.616Z,101387.94
2023-02-03T13:32:10.782Z,101393.22
2023-02-03T13:37:35.084Z,101383.84
2023-02-03T13:42:41.750Z,101398.00
2023-02-03T13:47:46.503Z,101402.63
2023-02-03T13:53:00.328Z,101414.75
2023-02-03T13:58:01.879Z,101419.09
2023-02-03T14:03:03.423Z,101414.88
2023-02-03T14:08:29.453Z,101423.13
2023-02-03T14:13:30.914Z,101392.28
2023-02-03T14:18:35.375Z,101432.84
2023-02-03T14:23:49.394Z,101421.00
2023-02-03T14:28:53.774Z,101429.47
2023-02-03T14:34:13.198Z,101441.81
2023-02-03T14:39:17.741Z,101440.06
2023-02-03T14:44:19.054Z,101444.59
2023-02-03T14:49:42.579Z,101449.56
2023-02-03T14:54:53.300Z,101442.84
2023-02-03T14:59:57.893Z,101455.75
2023-02-03T15:05:14.405Z,101459.69
2023-02-03T15:10:20.746Z,101471.81
2023-02-03T15:15:29.766Z,101459.69
2023-02-03T15:20:41.304Z,101461.41
2023-02-03T15:25:42.811Z,101467.63
2023-02-03T15:30:44.370Z,101487.09
2023-02-03T15:35:45.854Z,101485.34
2023-02-03T15:40:48.439Z,101494.78
2023-02-03T15:45:57.019Z,101499.34
2023-02-03T15:51:02.908Z,101488.28
2023-02-03T15:56:05.366Z,101513.97
2023-02-03T16:01:09.987Z,101516.44
2023-02-03T16:06:17.288Z,101538.00
2023-02-03T16:11:23.242Z,101555.31
2023-02-03T16:16:24.618Z,101569.88
2023-02-03T16:21:36.041Z,101565.56
2023-02-03T16:26:38.539Z,101597.50
2023-02-03T16:32:01.727Z,101635.19
2023-02-03T16:37:38.855Z,101611.34
2023-02-03T16:42:59.232Z,101633.75
2023-02-03T16:48:19.429Z,101651.72
2023-02-03T16:53:28.931Z,101648.13
2023-02-03T16:58:30.595Z,101642.28
2023-02-03T17:03:34.177Z,101642.16
2023-02-03T17:08:35.916Z,101672.28
2023-02-03T17:13:37.423Z,101674.03
2023-02-03T17:18:39.626Z,101685.16
2023-02-03T17:23:41.303Z,101687.78
2023-02-03T17:28:43.182Z,101705.00
2023-02-03T17:33:44.864Z,101722.28
2023-02-03T17:54:54.733Z,101751.38
2023-02-03T17:59:56.647Z,101771.88
2023-02-03T18:04:58.128Z,101784.59
2023-02-03T18:09:59.594Z,101795.19
2023-02-03T18:15:01.103Z,101802.03
2023-02-03T18:20:03.932Z,101814.94
2023-02-03T18:25:05.895Z,101806.25
2023-02-03T18:30:11.183Z,101803.75
2023-02-03T18:35:16.702Z,101819.41
2023-02-03T18:40:18.291Z,101839.94
2023-02-03T18:45:19.825Z,101837.97
2023-02-03T18:50:21.398Z,101858.56
2023-02-03T18:55:22.943Z,101877.25
2023-02-03T19:00:24.484Z,101896.38
2023-02-03T19:05:27.031Z,101911.94
2023-02-03T19:10:28.813Z,101909.34
2023-02-03T19:15:30.577Z,101932.69
2023-02-03T19:20:32.568Z,101935.38
2023-02-03T19:25:35.638Z,101935.22
2023-02-03T19:30:37.201Z,101956.69
2023-02-03T19:35:38.743Z,101961.94
2023-02-03T19:40:40.223Z,101978.91
2023-02-03T19:45:42.326Z,101988.53
2023-02-03T19:50:46.286Z,101998.81
2023-02-03T19:55:47.782Z,102012.69
2023-02-03T20:00:49.242Z,102033.34
2023-02-03T20:05:52.937Z,102045.38
2023-02-03T20:10:54.531Z,102056.63
2023-02-03T20:15:56.161Z,102060.84
2023-02-03T20:20:58.034Z,102066.91
2023-02-03T20:25:59.563Z,102089.44
2023-02-03T20:31:01.647Z,102096.34
2023-02-03T20:36:03.451Z,102103.19
2023-02-03T20:41:08.724Z,102105.81
2023-02-03T20:46:13.536Z,102126.47
2023-02-03T20:51:16.479Z,102137.53
2023-02-03T20:56:19.447Z,102152.94
2023-02-03T21:01:21.741Z,102165.22
2023-02-03T21:06:23.272Z,102165.03
2023-02-03T21:11:27.292Z,102182.97
2023-02-03T21:16:35.087Z,102165.50
2023-02-03T21:21:39.464Z,102196.66
2023-02-03T21:26:40.948Z,102223.63
2023-02-03T21:31:42.427Z,102228.75
2023-02-03T21:36:43.967Z,102238.38
2023-02-03T21:41:45.456Z,102241.03
2023-02-03T21:46:46.937Z,102248.81
2023-02-03T21:51:48.765Z,102253.09
2023-02-03T21:56:54.028Z,102269.50
2023-02-03T22:01:57.709Z,102278.94
2023-02-03T22:06:59.209Z,102295.31
2023-02-03T22:12:01.434Z,102302.22
2023-02-03T22:17:02.955Z,102308.25
2023-02-03T22:22:04.449Z,102317.69
2023-02-03T22:27:06.334Z,102340.06
2023-02-03T22:32:07.835Z,102351.31
2023-02-03T22:37:09.291Z,102353.91
2023-02-03T22:42:10.767Z,102365.09
2023-02-03T22:47:12.241Z,102374.56
2023-02-03T22:52:13.705Z,102374.59
2023-02-03T22:57:15.172Z,102399.59
2023-02-03T23:02:16.896Z,102398.72
2023-02-03T23:07:18.385Z,102404.75
2023-02-03T23:12:19.899Z,102421.94
2023-02-03T23:17:21.373Z,102432.31
2023-02-03T23:22:22.849Z,102434.06
2023-02-03T23:27:24.301Z,102453.84
2023-02-03T23:32:25.762Z,102446.16
2023-02-03T23:37:27.231Z,102454.63
2023-02-03T23:42:28.699Z,102452.16
2023-02-03T23:47:30.169Z,102470.16
2023-02-03T23:52:35.569Z,102487.34
2023-02-03T23:57:37.130Z,102487.25
